Andahuayla, Peru

9:59 AM PET on May 27, 2015 (GMT -0500)
Andahuaylas | | Change Station
CLOSE
Current Station
Airport
Location: Andahuayla,
Elevation: 11299 ft
Nearby Weather Stations

Elev 11299 ft 13.71 °S, 73.35 °W | Updated 59 minutes ago

Mostly Cloudy
Mostly Cloudy
54 °F
Feels Like 54 °F
N
4
Wind Variable Wind from NE

Today
High -- | Low -- °F
--% Chance of Precip.
Yesterday
High -- | Low -- °F
Precip. -- in
6:08 AM 5:32 PM
Waxing Gibbous, 68% visible
Pressure 30.63 in
Visibility 5.6 miles
Clouds Scattered Clouds 1200 ft
Mostly Cloudy 5000 ft
Dew Point 37 °F
Humidity 54%
Rainfall 0.00 in
Snow Depth Not available.
UV 4 out of 12
Pollen Not available.
Air Quality Not available.
Flu Activity Not available.
METAR SPHY 271400Z 05003KT 9000 SCT012 BKN050 12/03 Q1037 RMK PP000

More Conditions Fewer Conditions

Pressure 30.63 in
Visibility 5.6 miles
Clouds Scattered Clouds 1200 ft
Mostly Cloudy 5000 ft
Dew Point 37 °F
Humidity 54%
Rainfall 0.00 in
Snow Depth Not available.
UV 4 out of 12
Pollen Not available.
Air Quality Not available.
Flu Activity Not available.
METAR SPHY 271400Z 05003KT 9000 SCT012 BKN050 12/03 Q1037 RMK PP000

More Conditions Fewer Conditions

10-Day Weather Forecast

Almanac

Astronomy

May. 27, 2015 Rise Set
Actual Time
Civil Twilight
Nautical Twilight
Astronomical Twilight
Moon
Length of Visible Light
Length of Day
Tomorrow will be .
, % of the Moon is Illuminated

Today's Extremes

Country Highs Country Lows

Community

WunderPhotos

Upload Photos

1,824,690 photos uploaded!

WunderBlogs® & News

Nearby

Air Quality

  Air Quality AQ Index Pollutant
Not available.

Snow Depth

Station Depth Elevation

Earthquake Activity

City Distance Mag. Time & Date
Minimum magnitude displayed is 2.5.

Coastal Water Temperatures

Place Temperature

Stations

Nearby Weather Stations

Station Location Temp. Windchill Dew Point Humidity Wind Precip. Elev Updated Type